createdAt,value
2019-04-10T00:03:33.677Z,6.33
2019-04-10T00:08:36.524Z,6.20
2019-04-10T00:13:39.806Z,6.12
2019-04-10T00:18:42.926Z,6.08
2019-04-10T00:23:47.016Z,6.02
2019-04-10T00:28:50.209Z,5.85
2019-04-10T00:33:53.578Z,5.68
2019-04-10T00:38:57.922Z,5.60
2019-04-10T00:44:01.443Z,5.57
2019-04-10T00:49:05.058Z,5.42
2019-04-10T00:54:08.345Z,5.43
2019-04-10T00:59:12.170Z,5.31
2019-04-10T01:04:15.327Z,5.14
2019-04-10T01:09:19.415Z,5.11
2019-04-10T01:14:23.398Z,5.03
2019-04-10T01:19:26.621Z,4.97
2019-04-10T01:24:30.056Z,4.92
2019-04-10T01:29:33.632Z,4.89
2019-04-10T01:34:37.960Z,4.79
2019-04-10T01:39:42.331Z,4.76
2019-04-10T01:44:46.759Z,4.72
2019-04-10T01:49:50.335Z,4.64
2019-04-10T01:54:53.462Z,4.65
2019-04-10T01:59:56.630Z,4.60
2019-04-10T02:05:00.675Z,4.65
2019-04-10T02:10:05.348Z,4.79
2019-04-10T02:15:11.863Z,4.78
2019-04-10T02:20:14.636Z,4.56
2019-04-10T02:25:18.001Z,4.46
2019-04-10T02:30:21.876Z,4.46
2019-04-10T02:35:25.222Z,4.29
2019-04-10T02:40:28.944Z,4.26
2019-04-10T02:45:32.617Z,4.22
2019-04-10T02:50:37.176Z,4.21
2019-04-10T02:55:40.939Z,3.99
2019-04-10T03:00:44.307Z,3.89
2019-04-10T03:05:48.780Z,3.83
2019-04-10T03:10:56.801Z,3.74
2019-04-10T03:15:57.800Z,3.71
2019-04-10T03:21:01.101Z,3.70
2019-04-10T03:26:04.201Z,3.78
2019-04-10T03:31:07.943Z,3.80
2019-04-10T03:36:11.498Z,3.76
2019-04-10T03:41:15.676Z,3.74
2019-04-10T03:46:19.453Z,3.76
2019-04-10T03:51:22.954Z,3.77
2019-04-10T03:56:26.684Z,3.74
2019-04-10T04:01:29.862Z,3.73
2019-04-10T04:06:33.416Z,3.73
2019-04-10T04:11:37.735Z,3.72
2019-04-10T04:16:41.506Z,3.77
2019-04-10T04:21:44.910Z,3.71
2019-04-10T04:26:48.644Z,3.89
2019-04-10T04:31:52.624Z,3.94
2019-04-10T04:36:56.259Z,3.97
2019-04-10T04:41:59.586Z,4.00
2019-04-10T04:47:03.410Z,3.93
2019-04-10T04:52:06.974Z,4.13
2019-04-10T04:57:10.712Z,4.30
2019-04-10T05:02:14.323Z,4.36
2019-04-10T05:07:17.637Z,4.60
2019-04-10T05:12:20.632Z,4.29
2019-04-10T05:17:24.161Z,4.40
2019-04-10T05:22:28.291Z,4.74
2019-04-10T05:27:31.638Z,4.77
2019-04-10T05:32:35.386Z,4.61
2019-04-10T05:37:38.532Z,4.74
2019-04-10T05:42:41.781Z,4.82
2019-04-10T05:47:44.822Z,4.94
2019-04-10T05:52:48.180Z,4.95
2019-04-10T05:57:51.288Z,4.90
2019-04-10T06:02:54.704Z,5.01
2019-04-10T06:07:59.304Z,5.00
2019-04-10T06:13:02.680Z,5.24
2019-04-10T06:18:06.981Z,5.10
2019-04-10T06:23:11.528Z,5.32
2019-04-10T06:28:14.963Z,5.36
2019-04-10T06:33:18.093Z,5.46
2019-04-10T06:38:21.273Z,5.71
2019-04-10T06:43:25.196Z,5.98
2019-04-10T06:48:28.359Z,6.02
2019-04-10T06:53:31.316Z,6.11
2019-04-10T06:58:34.266Z,6.39
2019-04-10T07:03:49.518Z,6.80
2019-04-10T07:08:46.323Z,6.76
2019-04-10T07:13:47.486Z,6.75
2019-04-10T07:18:51.905Z,6.65
2019-04-10T07:23:58.978Z,6.74
2019-04-10T07:29:00.555Z,6.82
2019-04-10T07:34:03.809Z,6.84
2019-04-10T07:39:07.679Z,7.22
2019-04-10T07:44:12.065Z,7.71
2019-04-10T07:49:17.909Z,7.80
2019-04-10T07:54:21.292Z,7.75
2019-04-10T07:59:25.130Z,7.62
2019-04-10T08:04:29.048Z,7.54
2019-04-10T08:09:33.394Z,7.40
2019-04-10T08:14:37.878Z,8.08
2019-04-10T08:19:41.272Z,7.71
2019-04-10T08:24:46.171Z,7.73
2019-04-10T08:29:49.185Z,8.09
2019-04-10T08:34:52.668Z,8.42
2019-04-10T08:39:56.824Z,8.60
2019-04-10T08:45:00.857Z,8.34
2019-04-10T08:50:05.732Z,9.44
2019-04-10T08:55:10.125Z,9.78
2019-04-10T09:00:14.356Z,9.63
2019-04-10T09:05:17.555Z,9.33
2019-04-10T09:10:20.730Z,9.24
2019-04-10T09:15:25.639Z,8.83
2019-04-10T09:20:28.999Z,8.98
2019-04-10T09:25:33.304Z,9.11
2019-04-10T09:30:37.265Z,9.22
2019-04-10T09:35:41.173Z,9.24
2019-04-10T09:40:44.726Z,8.81
2019-04-10T09:45:48.019Z,9.28
2019-04-10T09:50:52.523Z,9.67
2019-04-10T09:55:56.776Z,9.54
2019-04-10T10:01:01.412Z,9.71
2019-04-10T10:06:04.795Z,9.81
2019-04-10T10:11:08.164Z,9.22
2019-04-10T10:16:11.898Z,9.40
2019-04-10T10:21:14.998Z,9.52
2019-04-10T10:26:19.607Z,8.97
2019-04-10T10:31:24.141Z,9.14
2019-04-10T10:36:36.715Z,9.31
2019-04-10T10:41:33.770Z,9.54
2019-04-10T10:46:37.718Z,9.76
2019-04-10T10:51:40.813Z,9.74
2019-04-10T10:56:44.696Z,10.14
2019-04-10T11:01:48.489Z,10.12
2019-04-10T11:06:59.637Z,10.18
2019-04-10T11:11:57.600Z,10.56
2019-04-10T11:17:01.435Z,10.01
2019-04-10T11:22:07.433Z,10.64
2019-04-10T11:27:11.881Z,10.49
2019-04-10T11:32:15.177Z,10.66
2019-04-10T11:37:27.072Z,10.89
2019-04-10T11:42:23.380Z,10.92
2019-04-10T11:47:26.809Z,11.02
2019-04-10T11:52:36.610Z,11.14
2019-04-10T11:57:35.237Z,11.07
2019-04-10T12:02:39.732Z,10.59
2019-04-10T12:08:29.617Z,10.35
2019-04-10T12:12:48.349Z,10.71
2019-04-10T12:17:52.008Z,10.74
2019-04-10T12:22:56.609Z,10.75
2019-04-10T12:27:59.817Z,10.42
2019-04-10T12:33:03.454Z,10.38
2019-04-10T12:38:09.943Z,10.45
2019-04-10T12:43:12.548Z,10.63
2019-04-10T12:48:16.709Z,10.67
2019-04-10T12:53:19.934Z,10.53
2019-04-10T12:58:23.085Z,10.63
2019-04-10T13:03:27.288Z,10.59
2019-04-10T13:08:47.215Z,10.32
2019-04-10T13:13:35.808Z,10.42
2019-04-10T13:18:39.128Z,10.58
2019-04-10T13:23:42.135Z,10.45
2019-04-10T13:28:45.227Z,10.60
2019-04-10T13:33:49.016Z,10.50
2019-04-10T13:38:52.645Z,10.21
2019-04-10T13:43:55.822Z,10.10
2019-04-10T13:48:59.795Z,10.22
2019-04-10T13:54:03.946Z,10.00
2019-04-10T13:59:07.351Z,9.89
2019-04-10T14:04:11.217Z,9.54
2019-04-10T14:09:32.238Z,9.46
2019-04-10T14:14:24.338Z,9.71
2019-04-10T14:19:29.861Z,9.64
2019-04-10T14:24:41.234Z,9.57
2019-04-10T14:29:38.685Z,9.71
2019-04-10T14:34:42.944Z,9.50
2019-04-10T14:39:47.544Z,9.59
2019-04-10T14:44:51.183Z,9.51
2019-04-10T14:49:55.445Z,9.29
2019-04-10T14:54:59.829Z,9.28
2019-04-10T15:00:04.321Z,9.39
2019-04-10T15:05:08.039Z,9.22
2019-04-10T15:10:12.630Z,9.27
2019-04-10T15:15:17.202Z,9.36
2019-04-10T15:20:20.929Z,9.45
2019-04-10T15:25:24.837Z,9.48
2019-04-10T15:30:28.648Z,9.31
2019-04-10T15:35:32.889Z,9.51
2019-04-10T15:40:36.602Z,9.41
2019-04-10T15:45:40.034Z,9.38
2019-04-10T15:50:43.480Z,9.43
2019-04-10T15:55:47.558Z,9.44
2019-04-10T16:00:51.740Z,9.54
2019-04-10T16:05:55.759Z,9.50
2019-04-10T16:11:10.491Z,9.45
2019-04-10T16:16:35.183Z,9.44
2019-04-10T16:21:38.204Z,9.38
2019-04-10T16:26:41.278Z,9.36
2019-04-10T16:31:44.451Z,9.30
2019-04-10T16:36:47.962Z,9.32
2019-04-10T16:41:52.320Z,9.29
2019-04-10T16:46:55.542Z,9.23
2019-04-10T16:51:59.182Z,9.16
2019-04-10T16:57:02.654Z,9.05
2019-04-10T17:02:05.865Z,9.17
2019-04-10T17:07:09.048Z,9.16
2019-04-10T17:12:12.075Z,9.15
2019-04-10T17:17:15.227Z,9.06
2019-04-10T17:22:30.834Z,9.16
2019-04-10T17:27:23.805Z,9.10
2019-04-10T17:32:27.229Z,9.12
2019-04-10T17:37:31.778Z,9.15
2019-04-10T17:42:34.948Z,8.92
2019-04-10T17:47:38.893Z,8.89
2019-04-10T17:52:42.967Z,8.79
2019-04-10T17:57:47.461Z,8.78
2019-04-10T18:02:51.234Z,8.83
2019-04-10T18:07:54.589Z,8.83
2019-04-10T18:12:58.897Z,8.80
2019-04-10T18:18:03.097Z,8.83
2019-04-10T18:23:07.161Z,8.73
2019-04-10T18:28:11.638Z,8.70
2019-04-10T18:33:15.177Z,8.67
2019-04-10T18:38:19.530Z,8.69
2019-04-10T18:43:22.602Z,8.67
2019-04-10T18:48:26.786Z,8.63
2019-04-10T18:53:30.183Z,8.58
2019-04-10T18:58:43.645Z,8.63
2019-04-10T19:04:02.626Z,8.56
2019-04-10T19:09:13.209Z,8.56
2019-04-10T19:14:09.985Z,8.58
2019-04-10T19:24:17.316Z,8.57
2019-04-10T19:29:21.403Z,8.62
2019-04-10T19:34:25.391Z,8.63
2019-04-10T19:39:28.451Z,8.50
2019-04-10T19:44:31.457Z,8.50
2019-04-10T19:49:35.016Z,8.42
2019-04-10T19:54:38.754Z,8.34
2019-04-10T19:59:42.210Z,8.28
2019-04-10T20:04:45.328Z,8.31
2019-04-10T20:09:48.560Z,8.23
2019-04-10T20:14:51.881Z,8.15
2019-04-10T20:19:56.742Z,8.15
2019-04-10T20:25:00.162Z,8.15
2019-04-10T20:30:04.200Z,8.08
2019-04-10T20:35:07.778Z,8.11
2019-04-10T20:40:11.908Z,8.09
2019-04-10T20:45:15.851Z,8.13
2019-04-10T20:50:19.655Z,8.08
2019-04-10T20:55:23.888Z,8.05
2019-04-10T21:00:32.117Z,8.04
2019-04-10T21:05:35.916Z,8.01
2019-04-10T21:10:39.174Z,7.98
2019-04-10T21:15:42.358Z,7.98
2019-04-10T21:20:45.439Z,7.94
2019-04-10T21:25:49.745Z,7.91
2019-04-10T21:31:20.374Z,7.92
2019-04-10T21:36:24.042Z,7.83
2019-04-10T21:41:27.088Z,7.88
2019-04-10T21:46:30.632Z,7.82
2019-04-10T21:51:34.996Z,7.84
2019-04-10T21:56:38.909Z,7.83
2019-04-10T22:01:42.312Z,7.80
2019-04-10T22:06:53.702Z,7.73
2019-04-10T22:11:58.465Z,7.74
2019-04-10T22:17:02.657Z,7.68
2019-04-10T22:22:06.301Z,7.73
2019-04-10T22:27:09.954Z,7.57
2019-04-10T22:32:14.114Z,7.62
2019-04-10T22:37:17.303Z,7.61
2019-04-10T22:42:22.433Z,7.57
2019-04-10T22:47:25.593Z,7.44
2019-04-10T22:52:28.675Z,7.35
2019-04-10T22:57:31.746Z,7.27
2019-04-10T23:02:35.373Z,7.29
2019-04-10T23:07:38.833Z,7.18
2019-04-10T23:12:52.240Z,7.13
2019-04-10T23:17:48.470Z,7.13
2019-04-10T23:22:52.602Z,7.09
2019-04-10T23:27:56.427Z,6.99
2019-04-10T23:32:59.964Z,6.97
2019-04-10T23:38:03.643Z,6.98
2019-04-10T23:43:12.880Z,6.94
2019-04-10T23:48:12.762Z,6.95
2019-04-10T23:53:16.549Z,6.98
2019-04-10T23:58:19.957Z,6.89
